createdAt,value
2022-11-23T00:01:15.953Z,6.50
2022-11-23T00:03:47.858Z,6.49
2022-11-23T00:06:14.480Z,6.57
2022-11-23T00:08:43.506Z,6.59
2022-11-23T00:11:12.410Z,6.58
2022-11-23T00:13:41.314Z,6.58
2022-11-23T00:16:15.737Z,6.62
2022-11-23T00:18:45.560Z,6.59
2022-11-23T00:21:15.204Z,6.57
2022-11-23T00:23:41.981Z,6.59
2022-11-23T00:26:11.178Z,6.63
2022-11-23T00:28:40.785Z,6.58
2022-11-23T00:31:09.057Z,6.63
2022-11-23T00:33:42.899Z,6.59
2022-11-23T00:36:17.668Z,6.61
2022-11-23T00:38:47.725Z,6.53
2022-11-23T00:41:15.381Z,6.55
2022-11-23T00:43:42.135Z,6.48
2022-11-23T00:46:19.082Z,6.51
2022-11-23T00:48:46.692Z,6.54
2022-11-23T00:51:14.633Z,6.57
2022-11-23T00:53:41.195Z,6.55
2022-11-23T00:56:07.943Z,6.58
2022-11-23T00:58:34.716Z,6.62
2022-11-23T01:01:03.731Z,6.59
2022-11-23T01:03:32.402Z,6.53
2022-11-23T01:06:02.127Z,6.55
2022-11-23T01:08:28.634Z,6.50
2022-11-23T01:11:00.573Z,6.46
2022-11-23T01:13:27.302Z,6.33
2022-11-23T01:15:56.311Z,6.38
2022-11-23T01:18:23.049Z,6.41
2022-11-23T01:20:49.549Z,6.43
2022-11-23T01:23:20.459Z,6.43
2022-11-23T01:25:47.229Z,6.44
2022-11-23T01:28:16.130Z,6.37
2022-11-23T01:30:42.922Z,6.39
2022-11-23T01:33:09.449Z,6.41
2022-11-23T01:35:38.524Z,6.28
2022-11-23T01:38:05.255Z,6.28
2022-11-23T01:40:33.018Z,6.29
2022-11-23T01:43:00.115Z,6.35
2022-11-23T01:45:38.999Z,6.39
2022-11-23T01:48:16.793Z,6.39
2022-11-23T01:50:47.231Z,6.36
2022-11-23T01:53:13.873Z,6.36
2022-11-23T01:55:40.410Z,6.36
2022-11-23T01:58:10.562Z,6.30
2022-11-23T02:00:40.030Z,6.30
2022-11-23T02:03:08.214Z,6.33
2022-11-23T02:05:38.951Z,6.39
2022-11-23T02:08:05.793Z,6.44
2022-11-23T02:10:32.444Z,6.51
2022-11-23T02:13:08.687Z,6.49
2022-11-23T02:15:35.338Z,6.43
2022-11-23T02:18:04.864Z,6.43
2022-11-23T02:20:34.127Z,6.47
2022-11-23T02:23:09.740Z,6.51
2022-11-23T02:25:45.557Z,6.47
2022-11-23T02:28:15.037Z,6.43
2022-11-23T02:30:41.650Z,6.43
2022-11-23T02:33:10.524Z,6.43
2022-11-23T02:35:46.739Z,6.43
2022-11-23T02:38:13.266Z,6.46
2022-11-23T02:40:42.110Z,6.45
2022-11-23T02:43:08.658Z,6.46
2022-11-23T02:45:43.798Z,6.39
2022-11-23T02:48:12.798Z,6.38
2022-11-23T02:50:42.348Z,6.34
2022-11-23T02:53:11.874Z,6.36
2022-11-23T02:55:38.419Z,6.39
2022-11-23T02:58:05.992Z,6.48
2022-11-23T03:00:32.960Z,6.54
2022-11-23T03:03:00.705Z,6.49
2022-11-23T03:05:27.308Z,6.47
2022-11-23T03:07:56.285Z,6.48
2022-11-23T03:10:25.370Z,6.41
2022-11-23T03:12:54.369Z,6.46
2022-11-23T03:15:21.026Z,6.48
2022-11-23T03:17:47.662Z,6.51
2022-11-23T03:20:18.542Z,6.52
2022-11-23T03:22:48.626Z,6.53
2022-11-23T03:25:17.135Z,6.13
2022-11-23T03:27:45.964Z,6.15
2022-11-23T03:30:12.874Z,6.15
2022-11-23T03:32:39.412Z,6.10
2022-11-23T03:35:06.257Z,6.17
2022-11-23T03:37:34.646Z,6.19
2022-11-23T03:40:01.829Z,6.22
2022-11-23T03:42:48.330Z,6.26
2022-11-23T03:45:14.957Z,6.30
2022-11-23T03:47:41.562Z,6.28
2022-11-23T03:50:08.306Z,6.29
2022-11-23T03:55:03.444Z,6.24
2022-11-23T03:57:33.314Z,6.24
2022-11-23T04:00:02.385Z,6.20
2022-11-23T04:02:39.782Z,6.22
2022-11-23T04:05:13.273Z,6.25
2022-11-23T04:08:00.145Z,6.32
2022-11-23T04:10:29.241Z,6.26
2022-11-23T04:13:21.806Z,6.20
2022-11-23T04:15:49.289Z,6.19
2022-11-23T04:18:15.898Z,6.22
2022-11-23T04:20:42.470Z,6.26
2022-11-23T04:23:13.548Z,6.13
2022-11-23T04:25:41.369Z,6.02
2022-11-23T04:28:10.516Z,6.08
2022-11-23T04:30:37.518Z,6.07
2022-11-23T04:33:04.362Z,6.09
2022-11-23T04:35:34.260Z,5.99
2022-11-23T04:38:03.940Z,6.01
2022-11-23T04:40:31.805Z,6.08
2022-11-23T04:43:07.043Z,6.16
2022-11-23T04:45:37.795Z,6.25
2022-11-23T04:48:08.993Z,6.32
2022-11-23T04:50:40.415Z,6.33
2022-11-23T04:53:08.683Z,6.31
2022-11-23T04:55:43.927Z,6.34
2022-11-23T04:58:10.995Z,6.34
2022-11-23T05:00:37.701Z,6.38
2022-11-23T05:03:05.260Z,6.41
2022-11-23T05:05:34.363Z,6.42
2022-11-23T05:08:02.450Z,6.42
2022-11-23T05:10:47.722Z,6.45
2022-11-23T05:13:16.771Z,6.38
2022-11-23T05:15:44.546Z,6.34
2022-11-23T05:18:14.502Z,6.39
2022-11-23T05:20:41.637Z,6.39
2022-11-23T05:23:08.308Z,6.34
2022-11-23T05:25:41.009Z,6.43
2022-11-23T05:31:13.555Z,6.52
2022-11-23T05:33:42.802Z,6.52
2022-11-23T05:36:09.650Z,6.49
2022-11-23T05:38:38.526Z,6.40
2022-11-23T05:41:11.030Z,6.39
2022-11-23T05:43:40.407Z,6.38
2022-11-23T05:46:12.038Z,6.38
2022-11-23T05:48:39.069Z,6.45
2022-11-23T05:51:10.105Z,6.43
2022-11-23T05:53:41.426Z,6.42
2022-11-23T05:56:29.371Z,6.40
2022-11-23T05:59:05.452Z,6.39
2022-11-23T06:01:35.092Z,6.41
2022-11-23T06:04:03.850Z,6.43
2022-11-23T06:06:38.287Z,6.41
2022-11-23T06:09:07.191Z,6.42
2022-11-23T06:11:39.773Z,6.45
2022-11-23T06:14:14.462Z,6.39
2022-11-23T06:16:44.041Z,6.41
2022-11-23T06:19:30.975Z,6.44
2022-11-23T06:21:58.667Z,6.47
2022-11-23T06:24:27.030Z,6.54
2022-11-23T06:27:18.236Z,6.58
2022-11-23T06:29:50.529Z,6.62
2022-11-23T06:32:18.180Z,6.59
2022-11-23T06:34:47.037Z,6.63
2022-11-23T06:37:16.096Z,6.65
2022-11-23T06:39:46.502Z,6.68
2022-11-23T06:45:00.143Z,6.75
2022-11-23T06:47:32.092Z,6.79
2022-11-23T06:49:58.634Z,6.82
2022-11-23T06:52:31.474Z,6.87
2022-11-23T06:54:58.013Z,6.90
2022-11-23T06:57:25.266Z,6.92
2022-11-23T06:59:53.068Z,6.99
2022-11-23T07:02:28.259Z,7.03
2022-11-23T07:04:57.452Z,7.07
2022-11-23T07:07:24.929Z,7.13
2022-11-23T07:10:05.449Z,7.17
2022-11-23T07:12:40.754Z,7.07
2022-11-23T07:15:10.362Z,7.06
2022-11-23T07:17:38.906Z,7.12
2022-11-23T07:20:05.969Z,7.18
2022-11-23T07:22:32.556Z,7.23
2022-11-23T07:24:59.139Z,7.27
2022-11-23T07:27:28.345Z,7.27
2022-11-23T07:29:57.364Z,7.31
2022-11-23T07:32:24.086Z,7.13
2022-11-23T07:34:50.711Z,7.07
2022-11-23T07:37:17.262Z,7.16
2022-11-23T07:39:57.528Z,7.20
2022-11-23T07:42:38.336Z,7.20
2022-11-23T07:45:13.447Z,7.22
2022-11-23T07:47:44.187Z,7.19
2022-11-23T07:50:13.519Z,7.25
2022-11-23T07:52:40.922Z,7.28
2022-11-23T07:55:08.082Z,7.22
2022-11-23T07:57:34.613Z,7.14
2022-11-23T08:00:01.166Z,7.09
2022-11-23T08:02:30.324Z,7.11
2022-11-23T08:04:56.931Z,7.14
2022-11-23T08:07:26.538Z,7.10
2022-11-23T08:09:53.163Z,7.22
2022-11-23T08:12:19.728Z,7.35
2022-11-23T08:14:46.219Z,7.36
2022-11-23T08:17:12.812Z,7.41
2022-11-23T08:19:39.464Z,7.48
2022-11-23T08:22:05.976Z,7.55
2022-11-23T08:24:32.995Z,7.61
2022-11-23T08:26:59.751Z,7.72
2022-11-23T08:29:26.305Z,7.77
2022-11-23T08:31:55.237Z,7.79
2022-11-23T08:34:24.297Z,7.83
2022-11-23T08:36:50.898Z,7.79
2022-11-23T08:39:19.483Z,7.81
2022-11-23T08:41:46.037Z,7.88
2022-11-23T08:44:12.639Z,7.73
2022-11-23T08:46:41.710Z,7.70
2022-11-23T08:49:08.444Z,7.66
2022-11-23T08:51:37.822Z,7.75
2022-11-23T08:54:04.395Z,7.67
2022-11-23T08:56:30.979Z,7.70
2022-11-23T08:59:00.383Z,7.70
2022-11-23T09:01:27.309Z,7.57
2022-11-23T09:03:54.951Z,7.54
2022-11-23T09:06:27.042Z,7.62
2022-11-23T09:08:53.954Z,7.70
2022-11-23T09:11:22.630Z,7.77
2022-11-23T09:13:49.304Z,7.79
2022-11-23T09:16:15.856Z,7.79
2022-11-23T09:18:44.766Z,7.83
2022-11-23T09:21:11.405Z,7.76
2022-11-23T09:23:38.018Z,7.73
2022-11-23T09:26:04.904Z,7.64
2022-11-23T09:28:32.267Z,7.73
2022-11-23T09:30:58.987Z,7.75
2022-11-23T09:33:30.605Z,7.70
2022-11-23T09:36:01.022Z,7.59
2022-11-23T09:38:51.632Z,7.55
2022-11-23T09:41:33.524Z,7.64
2022-11-23T09:44:00.113Z,7.69
2022-11-23T09:46:55.857Z,7.68
2022-11-23T09:49:28.331Z,7.67
2022-11-23T09:51:55.116Z,7.64
2022-11-23T09:54:30.431Z,7.74
2022-11-23T09:57:01.959Z,7.62
2022-11-23T09:59:32.492Z,7.58
2022-11-23T10:02:01.757Z,7.66
2022-11-23T10:04:34.076Z,7.79
2022-11-23T10:07:21.192Z,7.83
2022-11-23T10:09:58.039Z,7.90
2022-11-23T10:12:24.544Z,7.98
2022-11-23T10:15:20.617Z,8.02
2022-11-23T10:17:53.593Z,8.12
2022-11-23T10:20:29.377Z,8.08
2022-11-23T10:22:59.917Z,8.09
2022-11-23T10:25:27.890Z,7.93
2022-11-23T10:27:55.354Z,7.84
2022-11-23T10:30:24.286Z,7.71
2022-11-23T10:32:52.963Z,7.78
2022-11-23T10:35:25.519Z,7.81
2022-11-23T10:37:53.668Z,7.85
2022-11-23T10:40:27.481Z,7.98
2022-11-23T10:43:00.437Z,8.03
2022-11-23T10:45:27.678Z,8.08
2022-11-23T10:47:55.361Z,8.11
2022-11-23T10:50:24.382Z,8.20
2022-11-23T10:52:58.537Z,8.12
2022-11-23T10:55:26.805Z,8.14
2022-11-23T10:57:53.701Z,8.20
2022-11-23T11:00:23.679Z,8.27
2022-11-23T11:02:57.203Z,8.23
2022-11-23T11:05:46.265Z,8.18
2022-11-23T11:08:14.155Z,8.28
2022-11-23T11:10:50.768Z,8.20
2022-11-23T11:13:37.643Z,8.19
2022-11-23T11:16:08.844Z,8.18
2022-11-23T11:18:36.244Z,8.17
2022-11-23T11:21:21.225Z,8.18
2022-11-23T11:23:55.216Z,8.03
2022-11-23T11:26:27.094Z,8.00
2022-11-23T11:28:54.810Z,8.04
2022-11-23T11:31:42.607Z,8.03
2022-11-23T11:34:15.145Z,8.11
2022-11-23T11:36:45.566Z,8.13
2022-11-23T11:39:19.581Z,8.15
2022-11-23T11:41:49.162Z,8.16
2022-11-23T11:44:20.418Z,8.28
2022-11-23T11:46:50.382Z,8.19
2022-11-23T11:49:18.515Z,8.24
2022-11-23T11:52:03.977Z,8.22
2022-11-23T11:54:46.785Z,8.27
2022-11-23T11:57:18.289Z,8.25
2022-11-23T11:59:52.950Z,8.27
2022-11-23T12:02:30.163Z,8.34
2022-11-23T12:05:09.063Z,8.36
2022-11-23T12:07:55.942Z,8.41
2022-11-23T12:10:26.529Z,8.49
2022-11-23T12:12:53.074Z,8.50
2022-11-23T12:18:23.778Z,8.43
2022-11-23T12:20:50.423Z,8.48
2022-11-23T12:23:25.504Z,8.47
2022-11-23T12:26:01.271Z,8.41
2022-11-23T12:28:32.214Z,8.46
2022-11-23T12:31:02.173Z,8.47
2022-11-23T12:33:32.847Z,8.48
2022-11-23T12:35:59.434Z,8.47
2022-11-23T12:38:35.253Z,8.54
2022-11-23T12:41:04.839Z,8.49
2022-11-23T12:43:45.761Z,8.45
2022-11-23T12:46:18.527Z,8.46
2022-11-23T12:49:03.536Z,8.55
2022-11-23T12:51:48.582Z,8.50
2022-11-23T12:54:27.729Z,8.40
2022-11-23T12:57:17.701Z,8.48
2022-11-23T12:59:49.046Z,8.53
2022-11-23T13:02:22.875Z,8.37
2022-11-23T13:04:55.621Z,8.40
2022-11-23T13:07:35.398Z,8.35
2022-11-23T13:10:11.923Z,8.46
2022-11-23T13:12:44.862Z,8.51
2022-11-23T13:15:17.519Z,8.56
2022-11-23T13:17:47.477Z,8.58
2022-11-23T13:20:32.830Z,8.61
2022-11-23T13:22:59.425Z,8.72
2022-11-23T13:25:29.385Z,8.74
2022-11-23T13:27:59.792Z,8.69
2022-11-23T13:33:26.615Z,8.66
2022-11-23T13:36:02.138Z,8.52
2022-11-23T13:38:39.965Z,8.45
2022-11-23T13:41:30.494Z,8.50
2022-11-23T13:44:12.112Z,8.56
2022-11-23T13:46:41.484Z,8.51
2022-11-23T13:49:27.976Z,8.56
2022-11-23T13:52:07.513Z,8.62
2022-11-23T13:54:36.679Z,8.62
2022-11-23T13:57:05.786Z,8.54
2022-11-23T13:59:33.439Z,8.59
2022-11-23T14:02:08.892Z,8.62
2022-11-23T14:04:39.485Z,8.63
2022-11-23T14:07:09.087Z,8.67
2022-11-23T14:09:37.057Z,8.71
2022-11-23T14:12:14.251Z,8.74
2022-11-23T14:14:40.741Z,8.80
2022-11-23T14:17:23.841Z,8.90
2022-11-23T14:19:53.454Z,8.85
2022-11-23T14:22:28.089Z,8.90
2022-11-23T14:25:16.520Z,8.81
2022-11-23T14:28:06.353Z,8.78
2022-11-23T14:30:41.444Z,8.75
2022-11-23T14:33:26.767Z,8.71
2022-11-23T14:36:20.037Z,8.77
2022-11-23T14:38:55.059Z,8.80
2022-11-23T14:41:24.890Z,8.77
2022-11-23T14:43:51.468Z,8.69
2022-11-23T14:46:19.936Z,8.66
2022-11-23T14:48:49.347Z,8.69
2022-11-23T14:51:27.966Z,8.67
2022-11-23T14:53:57.376Z,8.75
2022-11-23T14:56:34.578Z,8.84
2022-11-23T14:59:02.846Z,8.87
2022-11-23T15:01:31.870Z,8.87
2022-11-23T15:04:10.718Z,8.87
2022-11-23T15:06:43.889Z,8.85
2022-11-23T15:09:15.752Z,8.89
2022-11-23T15:11:44.727Z,8.92
2022-11-23T15:14:25.966Z,8.89
2022-11-23T15:16:52.815Z,8.83
2022-11-23T15:19:23.734Z,8.78
2022-11-23T15:21:50.382Z,8.64
2022-11-23T15:24:21.957Z,8.56
2022-11-23T15:26:50.764Z,8.64
2022-11-23T15:29:29.551Z,8.74
2022-11-23T15:32:22.302Z,8.69
2022-11-23T15:34:45.381Z,8.68
2022-11-23T15:37:11.945Z,8.76
2022-11-23T15:39:38.458Z,8.77
2022-11-23T15:42:05.278Z,8.75
2022-11-23T15:44:35.873Z,8.79
2022-11-23T15:47:03.572Z,8.75
2022-11-23T15:49:30.576Z,8.76
2022-11-23T15:52:02.795Z,8.70
2022-11-23T15:54:32.453Z,8.69
2022-11-23T15:56:59.262Z,8.71
2022-11-23T15:59:32.803Z,8.65
2022-11-23T16:02:03.941Z,8.52
2022-11-23T16:04:33.149Z,8.52
2022-11-23T16:07:07.083Z,8.54
2022-11-23T16:12:23.278Z,8.69
2022-11-23T16:14:50.040Z,8.69
2022-11-23T16:17:16.579Z,8.69
2022-11-23T16:19:46.825Z,8.72
2022-11-23T16:22:17.532Z,8.73
2022-11-23T16:24:44.072Z,8.70
2022-11-23T16:27:14.285Z,8.72
2022-11-23T16:29:43.256Z,8.70
2022-11-23T16:32:25.324Z,8.77
2022-11-23T16:34:52.497Z,8.81
2022-11-23T16:37:19.080Z,8.90
2022-11-23T16:39:45.638Z,8.94
2022-11-23T16:42:15.637Z,8.92
2022-11-23T16:44:43.074Z,8.97
2022-11-23T16:47:21.252Z,9.00
2022-11-23T16:49:48.248Z,8.99
2022-11-23T16:52:17.267Z,8.95
2022-11-23T16:54:43.849Z,8.94
2022-11-23T16:57:28.828Z,8.97
2022-11-23T16:59:57.872Z,8.91
2022-11-23T17:02:26.828Z,8.88
2022-11-23T17:04:56.682Z,8.81
2022-11-23T17:07:23.433Z,8.76
2022-11-23T17:09:50.057Z,8.75
2022-11-23T17:12:19.779Z,8.78
2022-11-23T17:14:49.469Z,8.77
2022-11-23T17:17:20.642Z,8.80
2022-11-23T17:19:50.168Z,8.85
2022-11-23T17:22:19.525Z,8.83
2022-11-23T17:24:48.954Z,8.81
2022-11-23T17:27:20.693Z,8.75
2022-11-23T17:29:47.452Z,8.78
2022-11-23T17:32:14.274Z,8.78
2022-11-23T17:34:40.816Z,8.78
2022-11-23T17:37:09.789Z,8.79
2022-11-23T17:39:36.522Z,8.76
2022-11-23T17:42:05.626Z,8.71
2022-11-23T17:44:35.158Z,8.65
2022-11-23T17:47:01.682Z,8.65
2022-11-23T17:49:31.250Z,8.66
2022-11-23T17:51:58.595Z,8.66
2022-11-23T17:54:27.545Z,8.65
2022-11-23T17:56:54.194Z,8.61
2022-11-23T17:59:20.856Z,8.59
2022-11-23T18:01:47.804Z,8.57
2022-11-23T18:04:14.387Z,8.57
2022-11-23T18:06:40.968Z,8.48
2022-11-23T18:09:08.834Z,8.49
2022-11-23T18:11:35.354Z,8.47
2022-11-23T18:14:03.255Z,8.44
2022-11-23T18:16:29.859Z,8.48
2022-11-23T18:18:56.915Z,8.53
2022-11-23T18:21:23.486Z,8.49
2022-11-23T18:23:52.543Z,8.51
2022-11-23T18:26:23.202Z,8.46
2022-11-23T18:28:52.378Z,8.48
2022-11-23T18:31:21.299Z,8.47
2022-11-23T18:33:50.353Z,8.45
2022-11-23T18:36:16.874Z,8.43
2022-11-23T18:38:46.776Z,8.48
2022-11-23T18:41:14.386Z,8.48
2022-11-23T18:43:43.442Z,8.48
2022-11-23T18:46:19.617Z,8.44
2022-11-23T18:48:51.555Z,8.36
2022-11-23T18:51:20.568Z,8.40
2022-11-23T18:53:50.988Z,8.43
2022-11-23T18:56:18.023Z,8.48
2022-11-23T18:58:45.099Z,8.54
2022-11-23T19:01:12.722Z,8.56
2022-11-23T19:03:42.052Z,8.57
2022-11-23T19:06:09.077Z,8.60
2022-11-23T19:08:42.005Z,8.55
2022-11-23T19:11:09.426Z,8.49
2022-11-23T19:13:37.074Z,8.51
2022-11-23T19:16:13.638Z,8.55
2022-11-23T19:18:40.213Z,8.59
2022-11-23T19:21:13.046Z,8.65
2022-11-23T19:23:39.575Z,8.68
2022-11-23T19:26:08.478Z,8.67
2022-11-23T19:28:37.499Z,8.69
2022-11-23T19:31:30.684Z,8.57
2022-11-23T19:33:58.571Z,8.59
2022-11-23T19:36:25.285Z,8.57
2022-11-23T19:38:51.934Z,8.55
2022-11-23T19:41:18.864Z,8.56
2022-11-23T19:43:52.026Z,8.55
2022-11-23T19:46:19.061Z,8.59
2022-11-23T19:48:50.792Z,8.64
2022-11-23T19:51:19.425Z,8.64
2022-11-23T19:53:46.620Z,8.53
2022-11-23T19:56:13.936Z,8.53
2022-11-23T19:58:42.887Z,8.55
2022-11-23T20:01:19.547Z,8.53
2022-11-23T20:03:49.813Z,8.52
2022-11-23T20:06:26.326Z,8.46
2022-11-23T20:08:58.655Z,8.47
2022-11-23T20:11:28.479Z,8.50
2022-11-23T20:13:55.490Z,8.49
2022-11-23T20:16:29.761Z,8.50
2022-11-23T20:19:00.808Z,8.56
2022-11-23T20:21:30.041Z,8.58
2022-11-23T20:24:02.787Z,8.54
2022-11-23T20:26:31.444Z,8.56
2022-11-23T20:28:58.369Z,8.57
2022-11-23T20:31:25.840Z,8.58
2022-11-23T20:33:52.685Z,8.57
2022-11-23T20:36:21.634Z,8.50
2022-11-23T20:38:48.853Z,8.51
2022-11-23T20:41:24.479Z,8.55
2022-11-23T20:43:52.172Z,8.53
2022-11-23T20:46:38.216Z,8.49
2022-11-23T20:49:05.355Z,8.53
2022-11-23T20:51:34.332Z,8.56
2022-11-23T20:54:00.904Z,8.55
2022-11-23T20:56:29.096Z,8.57
2022-11-23T20:58:59.895Z,8.48
2022-11-23T21:01:27.798Z,8.51
2022-11-23T21:03:55.998Z,8.55
2022-11-23T21:06:22.846Z,8.58
2022-11-23T21:08:49.574Z,8.61
2022-11-23T21:11:34.929Z,8.57
2022-11-23T21:14:12.392Z,8.53
2022-11-23T21:16:45.908Z,8.38
2022-11-23T21:19:12.964Z,8.41
2022-11-23T21:21:44.493Z,8.44
2022-11-23T21:24:13.545Z,8.46
2022-11-23T21:26:40.379Z,8.48
2022-11-23T21:29:11.446Z,8.51
2022-11-23T21:31:44.595Z,8.52
2022-11-23T21:34:17.683Z,8.50
2022-11-23T21:36:44.404Z,8.51
2022-11-23T21:39:13.440Z,8.50
2022-11-23T21:41:44.980Z,8.54
2022-11-23T21:44:13.876Z,8.53
2022-11-23T21:46:42.985Z,8.48
2022-11-23T21:49:13.000Z,8.32
2022-11-23T21:51:39.608Z,8.30
2022-11-23T21:54:06.938Z,8.09
2022-11-23T21:56:35.976Z,8.13
2022-11-23T21:59:02.586Z,8.22
2022-11-23T22:01:29.802Z,8.30
2022-11-23T22:04:04.016Z,8.29
2022-11-23T22:06:30.659Z,8.32
2022-11-23T22:09:04.908Z,8.30
2022-11-23T22:11:34.874Z,8.36
2022-11-23T22:14:07.467Z,8.38
2022-11-23T22:16:34.752Z,8.40
2022-11-23T22:19:01.526Z,8.39
2022-11-23T22:21:31.982Z,8.40
2022-11-23T22:23:58.833Z,8.38
2022-11-23T22:26:27.601Z,8.37
2022-11-23T22:28:54.857Z,8.36
2022-11-23T22:31:25.113Z,8.38
2022-11-23T22:33:55.147Z,8.35
2022-11-23T22:36:24.190Z,8.36
2022-11-23T22:39:00.835Z,8.38
2022-11-23T22:41:28.214Z,8.35
2022-11-23T22:43:57.218Z,8.32
2022-11-23T22:46:25.219Z,8.34
2022-11-23T22:48:52.316Z,8.32
2022-11-23T22:51:22.417Z,8.28
2022-11-23T22:53:52.868Z,8.31
2022-11-23T22:56:19.778Z,8.32
2022-11-23T22:58:46.712Z,8.32
2022-11-23T23:01:14.166Z,8.31
2022-11-23T23:03:43.154Z,8.31
2022-11-23T23:06:15.016Z,8.31
2022-11-23T23:08:41.664Z,8.30
2022-11-23T23:11:08.307Z,8.28
2022-11-23T23:13:34.857Z,8.33
2022-11-23T23:16:07.477Z,8.31
2022-11-23T23:18:34.263Z,8.22
2022-11-23T23:21:04.787Z,8.22
2022-11-23T23:23:31.757Z,8.13
2022-11-23T23:25:58.318Z,8.02
2022-11-23T23:28:25.311Z,8.00
2022-11-23T23:30:51.849Z,8.04
2022-11-23T23:33:18.519Z,8.06
2022-11-23T23:35:45.089Z,8.06
2022-11-23T23:38:11.599Z,8.11
2022-11-23T23:40:40.916Z,8.07
2022-11-23T23:43:09.997Z,8.06
2022-11-23T23:45:36.595Z,8.04
2022-11-23T23:48:05.547Z,8.01
2022-11-23T23:50:35.358Z,8.04
2022-11-23T23:53:01.918Z,7.95
2022-11-23T23:55:30.764Z,7.94
2022-11-23T23:57:59.091Z,8.00
